createdAt,value
2023-04-04T03:00:56.354Z,99.90
2023-04-04T03:03:23.877Z,99.90
2023-04-04T03:05:51.413Z,99.90
2023-04-04T03:08:18.715Z,99.90
2023-04-04T03:10:48.942Z,99.90
2023-04-04T03:13:16.261Z,99.90
2023-04-04T03:15:43.930Z,99.90
2023-04-04T03:18:14.711Z,99.90
2023-04-04T03:20:42.338Z,99.90
2023-04-04T03:23:09.701Z,99.90
2023-04-04T03:25:37.043Z,99.90
2023-04-04T03:28:10.847Z,99.90
2023-04-04T03:30:38.944Z,99.90
2023-04-04T03:33:09.929Z,99.90
2023-04-04T03:35:40.609Z,99.90
2023-04-04T03:38:09.496Z,99.90
2023-04-04T03:40:36.899Z,99.90
2023-04-04T03:43:07.379Z,99.90
2023-04-04T03:45:35.880Z,99.90
2023-04-04T03:48:03.548Z,99.90
2023-04-04T03:50:31.322Z,99.90
2023-04-04T03:52:58.576Z,99.90
2023-04-04T03:55:26.418Z,99.90
2023-04-04T03:57:53.726Z,99.90
2023-04-04T04:00:21.178Z,99.90
2023-04-04T04:02:48.490Z,99.90
2023-04-04T04:05:16.156Z,99.90
2023-04-04T04:07:44.749Z,99.90
2023-04-04T04:10:14.253Z,99.90
2023-04-04T04:12:41.853Z,99.90
2023-04-04T04:15:09.506Z,99.90
2023-04-04T04:17:40.666Z,99.90
2023-04-04T04:20:09.585Z,99.90
2023-04-04T04:22:37.935Z,99.90
2023-04-04T04:25:05.686Z,99.90
2023-04-04T04:27:33.023Z,99.90
2023-04-04T04:30:00.285Z,99.90
2023-04-04T04:32:28.197Z,99.90
2023-04-04T04:34:55.669Z,99.90
2023-04-04T04:37:23.791Z,99.90
2023-04-04T04:39:52.155Z,99.90
2023-04-04T04:42:19.677Z,99.90
2023-04-04T04:44:47.154Z,99.90
2023-04-04T04:47:14.350Z,99.90
2023-04-04T04:49:43.538Z,99.90
2023-04-04T04:52:11.088Z,99.90
2023-04-04T04:54:38.324Z,99.90
2023-04-04T04:57:06.685Z,99.90
2023-04-04T04:59:34.067Z,99.90
2023-04-04T05:02:01.536Z,99.90
2023-04-04T05:04:28.891Z,99.90
2023-04-04T05:06:56.046Z,99.90
2023-04-04T05:09:23.725Z,99.90
2023-04-04T05:11:51.116Z,99.90
2023-04-04T05:14:18.473Z,99.90
2023-04-04T05:16:47.566Z,99.90
2023-04-04T05:19:16.392Z,99.90
2023-04-04T05:21:43.661Z,99.90
2023-04-04T05:24:10.871Z,99.90
2023-04-04T05:26:38.145Z,99.90
2023-04-04T05:29:05.576Z,99.90
2023-04-04T05:31:33.253Z,99.90
2023-04-04T05:34:07.951Z,99.90
2023-04-04T05:36:36.567Z,99.90
2023-04-04T05:39:05.006Z,99.90
2023-04-04T05:41:33.303Z,99.90
2023-04-04T05:44:00.594Z,99.90
2023-04-04T05:46:27.817Z,99.90
2023-04-04T05:48:55.349Z,99.90
2023-04-04T05:51:22.719Z,99.90
2023-04-04T05:53:50.051Z,99.90
2023-04-04T05:56:17.757Z,99.90
2023-04-04T05:58:46.402Z,99.90
2023-04-04T06:01:13.698Z,99.90
2023-04-04T06:03:41.211Z,99.90
2023-04-04T06:06:08.628Z,99.90
2023-04-04T06:08:50.236Z,99.90
2023-04-04T06:11:22.522Z,99.90
2023-04-04T06:13:51.101Z,99.90
2023-04-04T06:16:18.434Z,99.90
2023-04-04T06:18:45.882Z,99.90
2023-04-04T06:21:16.238Z,99.90
2023-04-04T06:23:43.430Z,99.90
2023-04-04T06:26:10.750Z,99.90
2023-04-04T06:28:38.000Z,99.90
2023-04-04T06:31:08.867Z,99.90
2023-04-04T06:33:36.300Z,99.50
2023-04-04T06:36:03.633Z,98.70
2023-04-04T06:38:31.462Z,98.60
2023-04-04T06:40:58.697Z,96.80
2023-04-04T06:43:26.069Z,98.00
2023-04-04T06:45:53.305Z,99.10
2023-04-04T06:48:20.974Z,99.80
2023-04-04T06:50:48.240Z,99.80
2023-04-04T06:53:15.643Z,99.10
2023-04-04T06:55:43.402Z,99.40
2023-04-04T06:58:10.800Z,98.50
2023-04-04T07:00:38.260Z,95.80
2023-04-04T07:03:05.913Z,95.50
2023-04-04T07:05:33.246Z,96.30
2023-04-04T07:08:00.669Z,95.00
2023-04-04T07:10:27.977Z,95.80
2023-04-04T07:12:55.485Z,93.10
2023-04-04T07:15:23.146Z,92.50
2023-04-04T07:17:50.447Z,93.50
2023-04-04T07:20:17.793Z,92.10
2023-04-04T07:22:45.390Z,93.40
2023-04-04T07:25:13.566Z,90.60
2023-04-04T07:27:43.704Z,90.70
2023-04-04T07:30:11.792Z,88.70
2023-04-04T07:32:39.439Z,87.10
2023-04-04T07:35:08.119Z,85.20
2023-04-04T07:37:38.373Z,85.10
2023-04-04T07:40:08.687Z,83.00
2023-04-04T07:42:36.009Z,82.00
2023-04-04T07:45:03.411Z,82.30
2023-04-04T07:47:30.884Z,84.70
2023-04-04T07:49:58.041Z,83.70
2023-04-04T07:52:25.547Z,80.10
2023-04-04T07:54:53.280Z,82.60
2023-04-04T07:57:20.637Z,79.90
2023-04-04T07:59:47.867Z,77.20
2023-04-04T08:02:15.158Z,78.50
2023-04-04T08:04:42.500Z,80.20
2023-04-04T08:07:09.874Z,76.90
2023-04-04T08:09:37.053Z,72.70
2023-04-04T08:12:06.495Z,72.20
2023-04-04T08:14:33.963Z,72.30
2023-04-04T08:17:01.466Z,72.90
2023-04-04T08:19:28.746Z,72.50
2023-04-04T08:21:56.787Z,67.30
2023-04-04T08:24:25.131Z,67.90
2023-04-04T08:27:04.525Z,68.50
2023-04-04T08:29:33.384Z,67.90
2023-04-04T08:32:01.173Z,68.60
2023-04-04T08:34:28.791Z,66.70
2023-04-04T08:36:56.488Z,66.30
2023-04-04T08:39:23.761Z,66.90
2023-04-04T08:42:02.020Z,69.70
2023-04-04T08:44:30.697Z,68.90
2023-04-04T08:47:00.603Z,68.60
2023-04-04T08:49:29.959Z,66.10
2023-04-04T08:51:58.366Z,66.50
2023-04-04T08:54:26.615Z,64.60
2023-04-04T08:56:54.280Z,64.40
2023-04-04T08:59:21.769Z,66.00
2023-04-04T09:01:51.549Z,71.10
2023-04-04T09:04:21.327Z,69.80
2023-04-04T09:06:48.867Z,71.80
2023-04-04T09:09:18.309Z,72.10
2023-04-04T09:11:47.232Z,71.40
2023-04-04T09:14:14.508Z,71.90
2023-04-04T09:16:42.438Z,73.80
2023-04-04T09:19:09.621Z,74.50
2023-04-04T09:21:37.710Z,72.30
2023-04-04T09:24:05.914Z,74.60
2023-04-04T09:26:52.940Z,76.60
2023-04-04T09:29:21.424Z,76.00
2023-04-04T09:31:50.157Z,75.80
2023-04-04T09:34:20.017Z,76.50
2023-04-04T09:36:47.702Z,77.40
2023-04-04T09:39:17.917Z,75.90
2023-04-04T09:41:45.969Z,77.20
2023-04-04T09:44:13.698Z,76.20
2023-04-04T09:46:41.568Z,76.40
2023-04-04T09:49:19.213Z,75.30
2023-04-04T09:51:49.926Z,76.50
2023-04-04T09:54:29.634Z,77.20
2023-04-04T09:56:58.026Z,76.90
2023-04-04T09:59:25.311Z,78.20
2023-04-04T10:01:55.092Z,79.20
2023-04-04T10:04:24.666Z,77.40
2023-04-04T10:06:54.079Z,76.40
2023-04-04T10:09:22.088Z,74.10
2023-04-04T10:11:49.465Z,72.90
2023-04-04T10:14:17.097Z,74.50
2023-04-04T10:16:47.127Z,74.20
2023-04-04T10:19:17.863Z,74.30
2023-04-04T10:21:47.651Z,75.30
2023-04-04T10:24:14.962Z,73.70
2023-04-04T10:26:42.220Z,75.20
2023-04-04T10:29:09.559Z,73.40
2023-04-04T10:31:41.404Z,73.20
2023-04-04T10:34:17.486Z,75.80
2023-04-04T10:36:49.111Z,73.70
2023-04-04T10:39:27.341Z,73.30
2023-04-04T10:41:56.391Z,74.60
2023-04-04T10:44:33.618Z,76.40
2023-04-04T10:47:19.693Z,74.20
2023-04-04T10:49:48.011Z,74.00
2023-04-04T10:52:18.887Z,75.30
2023-04-04T10:54:48.383Z,75.40
2023-04-04T10:57:16.254Z,75.00
2023-04-04T11:00:01.320Z,75.20
2023-04-04T11:02:47.306Z,74.50
2023-04-04T11:05:23.793Z,72.30
2023-04-04T11:08:08.523Z,73.30
2023-04-04T11:10:42.243Z,70.50
2023-04-04T11:13:14.069Z,70.50
2023-04-04T11:16:21.505Z,70.50
2023-04-04T11:18:49.183Z,71.70
2023-04-04T11:21:18.602Z,74.70
2023-04-04T11:23:48.720Z,76.20
2023-04-04T11:26:26.230Z,71.00
2023-04-04T11:28:57.328Z,70.00
2023-04-04T11:31:29.827Z,73.10
2023-04-04T11:34:00.335Z,75.20
2023-04-04T11:36:40.218Z,73.20
2023-04-04T11:39:33.669Z,75.80
2023-04-04T11:42:14.418Z,73.00
2023-04-04T11:45:06.884Z,74.70
2023-04-04T11:47:34.164Z,72.50
2023-04-04T11:50:07.179Z,73.00
2023-04-04T11:52:38.414Z,72.50
2023-04-04T11:55:16.189Z,73.20
2023-04-04T11:57:43.519Z,69.50
2023-04-04T12:00:15.463Z,68.80
2023-04-04T12:02:43.570Z,67.30
2023-04-04T12:05:12.177Z,70.30
2023-04-04T12:07:40.472Z,69.90
2023-04-04T12:10:09.053Z,72.10
2023-04-04T12:12:39.570Z,69.00
2023-04-04T12:15:16.890Z,69.60
2023-04-04T12:17:46.421Z,70.30
2023-04-04T12:20:16.489Z,71.20
2023-04-04T12:22:45.814Z,70.20
2023-04-04T12:25:13.041Z,70.10
2023-04-04T12:27:40.626Z,71.00
2023-04-04T12:30:15.487Z,72.40
2023-04-04T12:32:48.163Z,72.50
2023-04-04T12:35:15.956Z,67.20
2023-04-04T12:37:59.821Z,67.50
2023-04-04T12:40:37.238Z,69.10
2023-04-04T12:43:06.015Z,68.50
2023-04-04T12:45:36.732Z,69.70
2023-04-04T12:48:18.051Z,69.40
2023-04-04T12:50:56.805Z,69.00
2023-04-04T12:53:29.385Z,71.10
2023-04-04T12:56:03.132Z,69.00
2023-04-04T12:58:31.369Z,70.50
2023-04-04T13:01:00.910Z,69.70
2023-04-04T13:03:29.403Z,68.30
2023-04-04T13:05:59.444Z,69.60
2023-04-04T13:08:26.729Z,69.90
2023-04-04T13:10:59.425Z,68.70
2023-04-04T13:13:40.018Z,68.40
2023-04-04T13:16:08.570Z,67.70
2023-04-04T13:18:43.109Z,68.00
2023-04-04T13:21:12.100Z,67.50
2023-04-04T13:23:41.345Z,67.40
2023-04-04T13:26:10.045Z,68.70
2023-04-04T13:28:37.397Z,67.40
2023-04-04T13:31:15.698Z,66.60
2023-04-04T13:33:44.220Z,68.20
2023-04-04T13:36:12.619Z,68.30
2023-04-04T13:38:39.839Z,67.70
2023-04-04T13:41:07.108Z,69.90
2023-04-04T13:43:34.318Z,68.70
2023-04-04T13:46:01.597Z,69.00
2023-04-04T13:48:28.858Z,68.10
2023-04-04T13:50:56.265Z,69.90
2023-04-04T13:53:23.546Z,71.90
2023-04-04T13:56:13.968Z,70.70
2023-04-04T13:58:38.588Z,69.10
2023-04-04T14:01:07.091Z,67.10
2023-04-04T14:03:34.815Z,66.60
2023-04-04T14:06:09.875Z,66.50
2023-04-04T14:08:38.782Z,66.20
2023-04-04T14:11:06.136Z,63.70
2023-04-04T14:13:33.330Z,64.20
2023-04-04T14:16:00.784Z,67.10
2023-04-04T14:18:28.088Z,68.90
2023-04-04T14:20:55.847Z,70.50
2023-04-04T14:23:23.996Z,70.30
2023-04-04T14:25:51.611Z,69.20
2023-04-04T14:28:19.119Z,69.90
2023-04-04T14:30:46.341Z,69.20
2023-04-04T14:33:13.731Z,70.20
2023-04-04T14:35:41.370Z,72.00
2023-04-04T14:38:08.873Z,71.90
2023-04-04T14:40:36.489Z,68.80
2023-04-04T14:43:03.683Z,69.70
2023-04-04T14:45:32.243Z,69.50
2023-04-04T14:47:59.554Z,68.40
2023-04-04T14:50:26.770Z,71.50
2023-04-04T14:52:56.446Z,70.40
2023-04-04T14:55:24.042Z,69.50
2023-04-04T14:58:02.005Z,70.50
2023-04-04T15:00:30.779Z,68.90
2023-04-04T15:02:58.144Z,69.60
2023-04-04T15:05:26.545Z,71.10
2023-04-04T15:07:54.045Z,69.10
2023-04-04T15:10:21.897Z,69.60
2023-04-04T15:12:49.281Z,68.70
2023-04-04T15:15:16.635Z,68.50
2023-04-04T15:17:43.855Z,69.40
2023-04-04T15:20:11.893Z,66.80
2023-04-04T15:22:41.402Z,68.00
2023-04-04T15:25:09.721Z,66.80
2023-04-04T15:27:37.197Z,66.60
2023-04-04T15:30:05.134Z,66.80
2023-04-04T15:32:32.479Z,68.00
2023-04-04T15:34:59.832Z,67.40
2023-04-04T15:37:27.079Z,67.80
2023-04-04T15:39:54.768Z,69.00
2023-04-04T15:42:22.063Z,68.50
2023-04-04T15:44:49.345Z,68.20
2023-04-04T15:47:16.974Z,69.70
2023-04-04T15:49:44.210Z,68.50
2023-04-04T15:52:12.233Z,69.90
2023-04-04T15:54:39.511Z,67.60
2023-04-04T15:57:06.910Z,67.40
2023-04-04T15:59:34.394Z,68.10
2023-04-04T16:02:04.140Z,69.10
2023-04-04T16:04:31.386Z,67.30
2023-04-04T16:06:58.648Z,69.30
2023-04-04T16:09:25.937Z,70.00
2023-04-04T16:11:55.457Z,70.00
2023-04-04T16:14:24.064Z,69.10
2023-04-04T16:16:51.259Z,68.50
2023-04-04T16:19:19.171Z,68.30
2023-04-04T16:21:49.199Z,68.90
2023-04-04T16:24:16.453Z,69.40
2023-04-04T16:26:47.412Z,67.70
2023-04-04T16:29:17.198Z,68.10
2023-04-04T16:31:44.618Z,67.90
2023-04-04T16:34:11.962Z,69.30
2023-04-04T16:36:39.383Z,69.80
2023-04-04T16:39:06.962Z,70.80
2023-04-04T16:41:34.310Z,70.70
2023-04-04T16:44:01.602Z,70.90
2023-04-04T16:46:28.940Z,70.60
2023-04-04T16:48:56.185Z,70.70
2023-04-04T16:51:23.433Z,69.70
2023-04-04T16:53:50.735Z,71.00
2023-04-04T16:56:17.994Z,69.80
2023-04-04T16:58:45.828Z,70.00
2023-04-04T17:01:15.246Z,70.50
2023-04-04T17:03:42.529Z,71.60
2023-04-04T17:06:09.993Z,71.70
2023-04-04T17:08:37.209Z,71.40
2023-04-04T17:11:04.591Z,72.00
2023-04-04T17:13:31.794Z,72.10
2023-04-04T17:15:59.064Z,72.60
2023-04-04T17:18:26.395Z,72.40
2023-04-04T17:20:53.843Z,73.10
2023-04-04T17:23:21.161Z,72.40
2023-04-04T17:25:48.377Z,73.50
2023-04-04T17:28:15.608Z,74.50
2023-04-04T17:30:43.242Z,74.80
2023-04-04T17:33:10.529Z,75.40
2023-04-04T17:35:38.059Z,75.50
2023-04-04T17:38:05.316Z,76.00
2023-04-04T17:40:32.680Z,76.10
2023-04-04T17:42:59.840Z,76.80
2023-04-04T17:45:27.669Z,76.30
2023-04-04T17:47:54.982Z,77.10
2023-04-04T17:50:22.569Z,77.10
2023-04-04T17:52:49.801Z,77.50
2023-04-04T17:55:17.973Z,77.70
2023-04-04T17:57:45.365Z,78.20
2023-04-04T18:00:13.414Z,78.10
2023-04-04T18:02:40.728Z,78.80
2023-04-04T18:05:10.208Z,79.80
2023-04-04T18:07:37.460Z,79.40
2023-04-04T18:10:05.188Z,79.50
2023-04-04T18:12:35.671Z,79.60
2023-04-04T18:15:03.873Z,80.00
2023-04-04T18:17:32.370Z,80.10
2023-04-04T18:20:00.936Z,80.60
2023-04-04T18:22:28.281Z,81.10
2023-04-04T18:24:55.822Z,81.00
2023-04-04T18:27:23.055Z,81.70
2023-04-04T18:29:50.280Z,81.40
2023-04-04T18:32:18.316Z,81.60
2023-04-04T18:34:46.620Z,82.10
2023-04-04T18:37:13.985Z,82.40
2023-04-04T18:39:41.199Z,82.70
2023-04-04T18:42:10.240Z,82.90
2023-04-04T18:44:37.481Z,83.30
2023-04-04T18:47:08.262Z,83.70
2023-04-04T18:49:35.757Z,83.70
2023-04-04T18:52:03.071Z,83.50
2023-04-04T18:54:31.382Z,83.90
2023-04-04T18:56:58.659Z,84.50
2023-04-04T18:59:26.624Z,84.80
2023-04-04T19:01:54.261Z,85.00
2023-04-04T19:04:23.197Z,85.30
2023-04-04T19:06:52.437Z,85.40
2023-04-04T19:09:20.811Z,86.00
2023-04-04T19:11:49.188Z,85.90
2023-04-04T19:14:16.574Z,86.30
2023-04-04T19:16:43.849Z,86.60
2023-04-04T19:19:12.230Z,86.60
2023-04-04T19:21:39.882Z,86.70
2023-04-04T19:24:08.203Z,87.10
2023-04-04T19:26:35.516Z,87.00
2023-04-04T19:29:02.775Z,87.10
2023-04-04T19:31:33.103Z,87.50
2023-04-04T19:34:03.323Z,87.60
2023-04-04T19:36:35.768Z,87.90
2023-04-04T19:39:04.031Z,88.10
2023-04-04T19:41:40.829Z,88.80
2023-04-04T19:44:19.239Z,88.50
2023-04-04T19:46:47.701Z,88.90
2023-04-04T19:49:19.324Z,89.30
2023-04-04T19:51:49.437Z,89.10
2023-04-04T19:54:20.066Z,89.60
2023-04-04T19:56:49.839Z,90.20
2023-04-04T20:00:13.312Z,90.60
2023-04-04T20:02:50.212Z,90.90
2023-04-04T20:05:29.404Z,91.10
2023-04-04T20:07:56.639Z,91.50
2023-04-04T20:10:41.585Z,91.40
2023-04-04T20:13:09.777Z,91.30
2023-04-04T20:15:42.813Z,91.30
2023-04-04T20:18:10.096Z,91.50
2023-04-04T20:20:50.109Z,91.50
2023-04-04T20:23:17.634Z,91.80
2023-04-04T20:25:45.041Z,92.20
2023-04-04T20:28:26.582Z,92.40
2023-04-04T20:30:55.021Z,93.00
2023-04-04T20:33:32.239Z,93.40
2023-04-04T20:36:12.772Z,93.40
2023-04-04T20:38:41.481Z,92.90
2023-04-04T20:41:24.568Z,93.00
2023-04-04T20:43:53.151Z,92.20
2023-04-04T20:46:22.174Z,92.60
2023-04-04T20:48:51.092Z,92.60
2023-04-04T20:51:24.580Z,92.70
2023-04-04T20:53:53.533Z,92.80
2023-04-04T20:56:29.730Z,93.00
2023-04-04T20:58:58.420Z,92.90
